createdAt,value
2016-09-18T00:00:18.041Z,0
2016-09-18T00:01:18.044Z,0
2016-09-18T00:02:18.026Z,0
2016-09-18T00:03:18.025Z,0
2016-09-18T00:04:18.057Z,0
2016-09-18T00:05:18.027Z,0
2016-09-18T00:06:18.045Z,0
2016-09-18T00:07:18.034Z,0
2016-09-18T00:08:18.026Z,0
2016-09-18T00:09:18.053Z,0
2016-09-18T00:10:18.063Z,0
2016-09-18T00:11:18.089Z,0
2016-09-18T00:12:18.059Z,0
2016-09-18T00:13:18.112Z,0
2016-09-18T00:14:18.096Z,0
2016-09-18T00:15:18.074Z,0
2016-09-18T00:16:18.060Z,0
2016-09-18T00:17:18.060Z,0
2016-09-18T00:18:18.073Z,0
2016-09-18T00:19:18.095Z,0
2016-09-18T00:20:18.071Z,0
2016-09-18T00:21:18.076Z,0
2016-09-18T00:22:18.054Z,0
2016-09-18T00:23:18.090Z,0
2016-09-18T00:24:18.082Z,0
2016-09-18T00:25:18.057Z,0
2016-09-18T00:26:18.063Z,0
2016-09-18T00:27:18.084Z,0
2016-09-18T00:28:18.083Z,0
2016-09-18T00:29:18.061Z,0
2016-09-18T00:30:18.074Z,0
2016-09-18T00:31:18.081Z,0
2016-09-18T00:32:18.086Z,0
2016-09-18T00:33:18.096Z,0
2016-09-18T00:34:18.109Z,0
2016-09-18T00:35:18.104Z,0
2016-09-18T00:36:18.175Z,0
2016-09-18T00:37:18.090Z,0
2016-09-18T00:38:18.062Z,0
2016-09-18T00:39:18.121Z,0
2016-09-18T00:40:18.081Z,0
2016-09-18T00:41:18.060Z,0
2016-09-18T00:42:18.100Z,0
2016-09-18T00:43:18.090Z,0
2016-09-18T00:44:18.092Z,0
2016-09-18T00:45:18.111Z,0
2016-09-18T00:46:18.102Z,0
2016-09-18T00:47:18.082Z,0
2016-09-18T00:48:18.055Z,0
2016-09-18T00:49:18.079Z,0
2016-09-18T00:50:18.083Z,0
2016-09-18T00:51:18.090Z,0
2016-09-18T00:52:18.069Z,0
2016-09-18T00:53:18.076Z,0
2016-09-18T00:54:18.051Z,0
2016-09-18T00:55:18.092Z,0
2016-09-18T00:56:18.069Z,0
2016-09-18T00:57:18.070Z,0
2016-09-18T00:58:18.125Z,0
2016-09-18T00:59:18.074Z,0
2016-09-18T01:00:18.092Z,0
2016-09-18T01:01:18.059Z,0
2016-09-18T01:02:18.089Z,0
2016-09-18T01:03:18.102Z,0
2016-09-18T01:04:18.089Z,0
2016-09-18T01:05:18.096Z,0
2016-09-18T01:06:18.111Z,0
2016-09-18T01:07:18.165Z,0
2016-09-18T01:08:18.119Z,0
2016-09-18T01:09:18.079Z,0
2016-09-18T01:10:18.098Z,0
2016-09-18T01:11:18.076Z,0
2016-09-18T01:12:18.097Z,0
2016-09-18T01:13:18.096Z,0
2016-09-18T01:14:18.096Z,0
2016-09-18T01:15:18.218Z,0
2016-09-18T01:16:18.093Z,0
2016-09-18T01:17:18.086Z,0
2016-09-18T01:18:18.076Z,0
2016-09-18T01:19:18.127Z,0
2016-09-18T01:20:18.119Z,0
2016-09-18T01:21:18.161Z,0
2016-09-18T01:22:18.147Z,0
2016-09-18T01:23:18.110Z,0
2016-09-18T01:24:18.077Z,0
2016-09-18T01:25:18.151Z,0
2016-09-18T01:26:18.100Z,0
2016-09-18T01:27:18.126Z,0
2016-09-18T01:28:18.103Z,0
2016-09-18T01:29:18.124Z,0
2016-09-18T01:30:18.104Z,0
2016-09-18T01:31:18.093Z,0
2016-09-18T01:32:18.105Z,0
2016-09-18T01:33:18.148Z,0
2016-09-18T01:34:18.144Z,0
2016-09-18T01:35:18.137Z,0
2016-09-18T01:36:18.117Z,0
2016-09-18T01:37:18.181Z,0
2016-09-18T01:38:18.180Z,0
2016-09-18T01:39:18.259Z,0
2016-09-18T01:40:18.114Z,0
2016-09-18T01:41:18.155Z,0
2016-09-18T01:42:18.202Z,0
2016-09-18T01:43:18.146Z,0
2016-09-18T01:44:18.175Z,0
2016-09-18T01:45:18.168Z,0
2016-09-18T01:46:18.146Z,0
2016-09-18T01:47:18.112Z,0
2016-09-18T01:48:18.133Z,0
2016-09-18T01:49:18.122Z,0
2016-09-18T01:50:18.130Z,0
2016-09-18T01:51:18.104Z,0
2016-09-18T01:52:18.127Z,0
2016-09-18T01:53:18.134Z,0
2016-09-18T01:54:18.130Z,0
2016-09-18T01:55:18.131Z,0
2016-09-18T01:56:18.112Z,0
2016-09-18T01:57:18.149Z,0
2016-09-18T01:58:18.209Z,0
2016-09-18T01:59:18.159Z,0
2016-09-18T02:00:18.107Z,0
2016-09-18T02:01:18.187Z,0
2016-09-18T02:02:18.175Z,0
2016-09-18T02:03:18.167Z,0
2016-09-18T02:04:18.157Z,0
2016-09-18T02:05:18.151Z,0
2016-09-18T02:06:18.174Z,0
2016-09-18T02:07:18.184Z,0
2016-09-18T02:08:18.165Z,0
2016-09-18T02:09:18.172Z,0
2016-09-18T02:10:18.155Z,0
2016-09-18T02:11:18.157Z,0
2016-09-18T02:12:18.164Z,0
2016-09-18T02:13:18.178Z,0
2016-09-18T02:14:18.190Z,0
2016-09-18T02:15:18.142Z,0
2016-09-18T02:16:18.149Z,0
2016-09-18T02:17:18.142Z,0
2016-09-18T02:18:18.191Z,0
2016-09-18T02:19:18.151Z,0
2016-09-18T02:20:18.171Z,0
2016-09-18T02:21:18.191Z,0
2016-09-18T02:22:18.207Z,0
2016-09-18T02:23:18.206Z,0
2016-09-18T02:24:18.183Z,0
2016-09-18T02:25:18.201Z,0
2016-09-18T02:26:18.196Z,0
2016-09-18T02:27:18.166Z,0
2016-09-18T02:28:18.167Z,0
2016-09-18T02:29:18.210Z,0
2016-09-18T02:30:18.168Z,0
2016-09-18T02:31:18.190Z,0
2016-09-18T02:32:18.258Z,0
2016-09-18T02:33:18.189Z,0
2016-09-18T02:34:18.213Z,0
2016-09-18T02:35:18.187Z,0
2016-09-18T02:36:18.178Z,0
2016-09-18T02:37:18.225Z,0
2016-09-18T02:38:18.162Z,0
2016-09-18T02:39:18.243Z,0
2016-09-18T02:40:18.185Z,0
2016-09-18T02:41:18.156Z,0
2016-09-18T02:42:18.174Z,0
2016-09-18T02:43:18.177Z,0
2016-09-18T02:44:18.195Z,0
2016-09-18T02:45:18.180Z,0
2016-09-18T02:46:18.173Z,0
2016-09-18T02:47:18.184Z,0
2016-09-18T02:48:18.217Z,0
2016-09-18T02:49:18.176Z,0
2016-09-18T02:50:18.196Z,0
2016-09-18T02:51:18.226Z,0
2016-09-18T02:52:18.193Z,0
2016-09-18T02:53:18.201Z,0
2016-09-18T02:54:18.226Z,0
2016-09-18T02:55:18.207Z,0
2016-09-18T02:56:18.219Z,0
2016-09-18T02:57:18.213Z,0
2016-09-18T02:58:18.179Z,0
2016-09-18T02:59:18.200Z,0
2016-09-18T03:00:18.214Z,0
2016-09-18T03:01:18.201Z,0
2016-09-18T03:02:18.220Z,0
2016-09-18T03:03:18.192Z,0
2016-09-18T03:04:18.204Z,0
2016-09-18T03:05:18.216Z,0
2016-09-18T03:06:18.234Z,0
2016-09-18T03:07:18.322Z,0
2016-09-18T03:08:18.181Z,0
2016-09-18T03:09:18.200Z,0
2016-09-18T03:10:18.213Z,0
2016-09-18T03:11:18.203Z,0
2016-09-18T03:12:18.210Z,0
2016-09-18T03:13:18.229Z,0
2016-09-18T03:14:18.235Z,0
2016-09-18T03:15:18.287Z,0
2016-09-18T03:16:18.262Z,0
2016-09-18T03:17:18.255Z,0
2016-09-18T03:18:18.270Z,0
2016-09-18T03:19:18.214Z,0
2016-09-18T03:20:18.201Z,0
2016-09-18T03:21:18.219Z,0
2016-09-18T03:22:18.236Z,0
2016-09-18T03:23:18.243Z,0
2016-09-18T03:24:18.235Z,0
2016-09-18T03:25:18.238Z,0
2016-09-18T03:26:18.274Z,0
2016-09-18T03:27:18.252Z,0
2016-09-18T03:28:18.281Z,0
2016-09-18T03:29:18.249Z,0
2016-09-18T03:30:18.259Z,0
2016-09-18T03:31:18.276Z,0
2016-09-18T03:32:18.269Z,0
2016-09-18T03:33:18.200Z,0
2016-09-18T03:34:18.258Z,0
2016-09-18T03:35:18.204Z,0
2016-09-18T03:36:18.227Z,0
2016-09-18T03:37:18.233Z,0
2016-09-18T03:38:18.240Z,0
2016-09-18T03:39:18.261Z,0
2016-09-18T03:40:18.232Z,0
2016-09-18T03:41:18.246Z,0
2016-09-18T03:42:18.239Z,0
2016-09-18T03:43:18.251Z,0
2016-09-18T03:44:18.265Z,0
2016-09-18T03:45:18.225Z,0
2016-09-18T03:46:18.287Z,0
2016-09-18T03:47:18.224Z,0
2016-09-18T03:48:18.201Z,0
2016-09-18T03:49:18.262Z,0
2016-09-18T03:50:18.244Z,0
2016-09-18T03:51:18.226Z,0
2016-09-18T03:52:18.258Z,0
2016-09-18T03:53:18.271Z,0
2016-09-18T03:54:18.233Z,0
2016-09-18T03:55:18.242Z,0
2016-09-18T03:56:18.242Z,0
2016-09-18T03:57:18.263Z,0
2016-09-18T03:58:18.244Z,0
2016-09-18T03:59:18.238Z,0
2016-09-18T04:00:18.267Z,0
2016-09-18T04:01:18.236Z,0
2016-09-18T04:02:18.299Z,0
2016-09-18T04:03:18.249Z,0
2016-09-18T04:04:18.274Z,0
2016-09-18T04:05:18.232Z,0
2016-09-18T04:06:18.268Z,0
2016-09-18T04:07:18.248Z,0
2016-09-18T04:08:18.274Z,0
2016-09-18T04:09:18.268Z,0
2016-09-18T04:10:18.259Z,0
2016-09-18T04:11:18.264Z,0
2016-09-18T04:12:18.258Z,0
2016-09-18T04:13:18.247Z,0
2016-09-18T04:14:18.278Z,0
2016-09-18T04:15:18.278Z,0
2016-09-18T04:16:18.286Z,0
2016-09-18T04:17:18.236Z,0
2016-09-18T04:18:18.252Z,0
2016-09-18T04:19:18.273Z,0
2016-09-18T04:20:18.280Z,0
2016-09-18T04:21:18.286Z,0
2016-09-18T04:22:18.269Z,0
2016-09-18T04:23:18.273Z,0
2016-09-18T04:24:18.269Z,0
2016-09-18T04:25:18.271Z,0
2016-09-18T04:26:18.290Z,0
2016-09-18T04:27:18.322Z,0
2016-09-18T04:28:18.296Z,0
2016-09-18T04:29:18.300Z,0
2016-09-18T04:30:18.290Z,0
2016-09-18T04:31:18.303Z,0
2016-09-18T04:32:18.264Z,0
2016-09-18T04:33:18.301Z,0
2016-09-18T04:34:18.281Z,0
2016-09-18T04:35:18.303Z,0
2016-09-18T04:36:18.306Z,0
2016-09-18T04:37:18.291Z,0
2016-09-18T04:38:18.277Z,0
2016-09-18T04:39:18.302Z,0
2016-09-18T04:40:18.303Z,0
2016-09-18T04:41:19.457Z,0
2016-09-18T04:42:18.310Z,0
2016-09-18T04:43:18.380Z,0
2016-09-18T04:44:18.308Z,0
2016-09-18T04:45:18.339Z,0
2016-09-18T04:46:18.294Z,0
2016-09-18T04:47:18.287Z,0
2016-09-18T04:48:18.330Z,0
2016-09-18T04:49:18.309Z,0
2016-09-18T04:50:18.278Z,0
2016-09-18T04:51:18.328Z,0
2016-09-18T04:52:18.328Z,0
2016-09-18T04:53:18.323Z,0
2016-09-18T04:54:18.322Z,0
2016-09-18T04:55:18.338Z,0
2016-09-18T04:56:18.333Z,0
2016-09-18T04:57:18.339Z,0
2016-09-18T04:58:18.357Z,0
2016-09-18T04:59:18.312Z,0
2016-09-18T05:00:18.312Z,0
2016-09-18T05:01:18.307Z,0
2016-09-18T05:02:18.339Z,0
2016-09-18T05:03:18.364Z,0
2016-09-18T05:04:18.349Z,0
2016-09-18T05:05:18.347Z,0
2016-09-18T05:06:18.306Z,0
2016-09-18T05:07:18.335Z,0
2016-09-18T05:08:18.319Z,0
2016-09-18T05:09:18.312Z,0
2016-09-18T05:10:18.323Z,0
2016-09-18T05:11:18.333Z,0
2016-09-18T05:12:18.347Z,0
2016-09-18T05:13:18.334Z,0
2016-09-18T05:14:18.345Z,0
2016-09-18T05:15:18.338Z,0
2016-09-18T05:16:18.316Z,0
2016-09-18T05:17:18.348Z,0
2016-09-18T05:18:18.365Z,0
2016-09-18T05:19:18.365Z,0
2016-09-18T05:20:18.319Z,0
2016-09-18T05:21:18.326Z,0
2016-09-18T05:22:18.347Z,0
2016-09-18T05:23:18.315Z,0
2016-09-18T05:24:18.359Z,0
2016-09-18T05:25:18.355Z,0
2016-09-18T05:26:18.348Z,0
2016-09-18T05:27:18.337Z,0
2016-09-18T05:28:18.357Z,0
2016-09-18T05:29:18.349Z,0
2016-09-18T05:30:18.331Z,0
2016-09-18T05:31:18.304Z,5
2016-09-18T05:32:18.341Z,5
2016-09-18T05:33:18.380Z,5
2016-09-18T05:34:18.367Z,5
2016-09-18T05:35:18.405Z,5
2016-09-18T05:36:18.341Z,5
2016-09-18T05:37:18.349Z,5
2016-09-18T05:38:18.323Z,5
2016-09-18T05:39:18.342Z,5
2016-09-18T05:40:18.335Z,5
2016-09-18T05:41:18.386Z,5
2016-09-18T05:42:18.350Z,5
2016-09-18T05:43:18.381Z,5
2016-09-18T05:44:18.367Z,5
2016-09-18T05:45:18.375Z,5
2016-09-18T05:46:18.368Z,5
2016-09-18T05:47:18.351Z,5
2016-09-18T05:48:18.362Z,5
2016-09-18T05:49:18.350Z,5
2016-09-18T05:50:18.370Z,5
2016-09-18T05:51:18.361Z,5
2016-09-18T05:52:18.350Z,5
2016-09-18T05:53:18.349Z,5
2016-09-18T05:54:18.375Z,5
2016-09-18T05:55:18.362Z,5
2016-09-18T05:56:18.353Z,5
2016-09-18T05:57:18.378Z,5
2016-09-18T05:58:18.381Z,5
2016-09-18T05:59:18.352Z,5
2016-09-18T06:00:18.358Z,10
2016-09-18T06:01:18.365Z,10
2016-09-18T06:02:18.403Z,10
2016-09-18T06:03:18.375Z,10
2016-09-18T06:04:18.398Z,10
2016-09-18T06:05:18.384Z,10
2016-09-18T06:06:18.376Z,10
2016-09-18T06:07:18.357Z,10
2016-09-18T06:08:18.381Z,10
2016-09-18T06:09:18.366Z,10
2016-09-18T06:10:18.408Z,10
2016-09-18T06:11:18.401Z,10
2016-09-18T06:12:18.369Z,15
2016-09-18T06:13:18.385Z,10
2016-09-18T06:14:18.386Z,15
2016-09-18T06:15:18.416Z,15
2016-09-18T06:16:18.392Z,15
2016-09-18T06:17:18.369Z,15
2016-09-18T06:18:18.376Z,15
2016-09-18T06:19:18.375Z,15
2016-09-18T06:20:18.359Z,15
2016-09-18T06:21:18.392Z,20
2016-09-18T06:22:18.407Z,20
2016-09-18T06:23:18.401Z,20
2016-09-18T06:24:18.403Z,20
2016-09-18T06:25:18.376Z,20
2016-09-18T06:26:18.385Z,25
2016-09-18T06:27:18.390Z,30
2016-09-18T06:28:18.381Z,30
2016-09-18T06:29:18.386Z,25
2016-09-18T06:30:18.396Z,25
2016-09-18T06:31:18.369Z,20
2016-09-18T06:32:18.454Z,20
2016-09-18T06:33:18.400Z,30
2016-09-18T06:34:18.483Z,35
2016-09-18T06:35:18.516Z,35
2016-09-18T06:36:18.485Z,30
2016-09-18T06:37:18.441Z,25
2016-09-18T06:38:18.417Z,25
2016-09-18T06:39:18.460Z,35
2016-09-18T06:40:18.475Z,35
2016-09-18T06:41:18.433Z,35
2016-09-18T06:42:18.459Z,35
2016-09-18T06:43:18.427Z,35
2016-09-18T06:44:18.449Z,35
2016-09-18T06:45:18.513Z,35
2016-09-18T06:46:18.456Z,40
2016-09-18T06:47:18.419Z,40
2016-09-18T06:48:18.400Z,40
2016-09-18T06:49:18.433Z,40
2016-09-18T06:50:18.424Z,45
2016-09-18T06:51:18.418Z,45
2016-09-18T06:52:18.466Z,45
2016-09-18T06:53:18.488Z,45
2016-09-18T06:54:18.434Z,45
2016-09-18T06:55:18.417Z,45
2016-09-18T06:56:18.460Z,45
2016-09-18T06:57:18.445Z,45
2016-09-18T06:58:18.447Z,40
2016-09-18T06:59:18.398Z,35
2016-09-18T07:00:18.470Z,40
2016-09-18T07:01:18.447Z,40
2016-09-18T07:02:18.387Z,40
2016-09-18T07:03:18.483Z,45
2016-09-18T07:04:18.460Z,50
2016-09-18T07:05:18.424Z,55
2016-09-18T07:06:18.485Z,60
2016-09-18T07:07:18.453Z,55
2016-09-18T07:08:18.470Z,55
2016-09-18T07:09:18.475Z,50
2016-09-18T07:10:18.471Z,55
2016-09-18T07:11:18.459Z,55
2016-09-18T07:12:18.424Z,55
2016-09-18T07:13:18.428Z,55
2016-09-18T07:14:18.443Z,60
2016-09-18T07:15:18.440Z,70
2016-09-18T07:16:18.430Z,65
2016-09-18T07:17:18.412Z,75
2016-09-18T07:18:18.401Z,85
2016-09-18T07:19:18.452Z,80
2016-09-18T07:20:18.430Z,80
2016-09-18T07:21:18.408Z,85
2016-09-18T07:22:18.400Z,75
2016-09-18T07:23:18.484Z,70
2016-09-18T07:24:18.460Z,70
2016-09-18T07:25:18.458Z,70
2016-09-18T07:26:18.457Z,65
2016-09-18T07:27:18.420Z,70
2016-09-18T07:28:18.470Z,80
2016-09-18T07:29:18.499Z,85
2016-09-18T07:30:18.491Z,95
2016-09-18T07:31:18.472Z,110
2016-09-18T07:32:18.420Z,105
2016-09-18T07:33:18.459Z,105
2016-09-18T07:34:18.444Z,110
2016-09-18T07:35:18.441Z,110
2016-09-18T07:36:18.475Z,105
2016-09-18T07:37:18.462Z,100
2016-09-18T07:38:18.482Z,95
2016-09-18T07:39:18.481Z,75
2016-09-18T07:40:18.613Z,70
2016-09-18T07:41:18.484Z,70
2016-09-18T07:42:18.452Z,55
2016-09-18T07:43:18.466Z,50
2016-09-18T07:44:18.465Z,65
2016-09-18T07:45:18.481Z,100
2016-09-18T07:46:18.485Z,100
2016-09-18T07:47:18.456Z,95
2016-09-18T07:48:18.487Z,95
2016-09-18T07:49:18.437Z,95
2016-09-18T07:50:19.496Z,95
2016-09-18T07:51:18.486Z,95
2016-09-18T07:52:18.490Z,100
2016-09-18T07:53:18.511Z,95
2016-09-18T07:54:18.530Z,85
2016-09-18T07:55:18.488Z,95
2016-09-18T07:56:18.486Z,120
2016-09-18T07:57:18.462Z,125
2016-09-18T07:58:18.502Z,115
2016-09-18T07:59:18.439Z,110
2016-09-18T08:00:18.470Z,95
2016-09-18T08:01:18.501Z,85
2016-09-18T08:02:18.488Z,90
2016-09-18T08:03:18.641Z,110
2016-09-18T08:04:18.508Z,105
2016-09-18T08:05:18.466Z,90
2016-09-18T08:06:18.467Z,90
2016-09-18T08:07:18.475Z,95
2016-09-18T08:08:18.504Z,100
2016-09-18T08:09:18.492Z,100
2016-09-18T08:10:18.519Z,100
2016-09-18T08:11:18.490Z,110
2016-09-18T08:12:18.482Z,115
2016-09-18T08:13:18.498Z,115
2016-09-18T08:14:18.491Z,115
2016-09-18T08:15:18.481Z,120
2016-09-18T08:16:18.521Z,120
2016-09-18T08:17:18.501Z,110
2016-09-18T08:18:18.536Z,135
2016-09-18T08:19:18.536Z,170
2016-09-18T08:20:18.510Z,160
2016-09-18T08:21:18.562Z,160
2016-09-18T08:22:18.539Z,175
2016-09-18T08:23:18.521Z,200
2016-09-18T08:24:18.523Z,210
2016-09-18T08:25:18.500Z,205
2016-09-18T08:26:18.497Z,250
2016-09-18T08:27:18.474Z,235
2016-09-18T08:28:18.493Z,250
2016-09-18T08:29:18.489Z,280
2016-09-18T08:30:18.466Z,280
2016-09-18T08:31:18.475Z,285
2016-09-18T08:32:18.504Z,280
2016-09-18T08:33:18.513Z,250
2016-09-18T08:34:18.498Z,260
2016-09-18T08:35:18.492Z,285
2016-09-18T08:36:18.491Z,285
2016-09-18T08:37:18.504Z,305
2016-09-18T08:38:18.471Z,315
2016-09-18T08:39:18.552Z,255
2016-09-18T08:40:18.510Z,235
2016-09-18T08:41:18.505Z,245
2016-09-18T08:42:18.498Z,235
2016-09-18T08:43:18.529Z,290
2016-09-18T08:44:18.581Z,355
2016-09-18T08:45:19.218Z,365
2016-09-18T08:46:18.532Z,335
2016-09-18T08:47:18.515Z,305
2016-09-18T08:48:18.525Z,285
2016-09-18T08:49:18.529Z,225
2016-09-18T08:50:18.503Z,240
2016-09-18T08:51:18.494Z,275
2016-09-18T08:52:18.484Z,300
2016-09-18T08:53:18.550Z,305
2016-09-18T08:54:18.515Z,310
2016-09-18T08:55:18.536Z,330
2016-09-18T08:56:18.539Z,330
2016-09-18T08:57:18.574Z,355
2016-09-18T08:58:18.539Z,340
2016-09-18T08:59:18.554Z,320
2016-09-18T09:00:18.587Z,285
2016-09-18T09:01:18.553Z,240
2016-09-18T09:02:18.560Z,235
2016-09-18T09:03:18.615Z,260
2016-09-18T09:04:18.542Z,315
2016-09-18T09:05:18.569Z,335
2016-09-18T09:06:18.611Z,285
2016-09-18T09:07:18.563Z,285
2016-09-18T09:08:19.203Z,295
2016-09-18T09:09:18.564Z,325
2016-09-18T09:10:18.527Z,325
2016-09-18T09:11:18.535Z,300
2016-09-18T09:12:18.563Z,320
2016-09-18T09:13:18.569Z,330
2016-09-18T09:14:18.564Z,350
2016-09-18T09:15:18.554Z,310
2016-09-18T09:16:18.590Z,280
2016-09-18T09:17:18.561Z,270
2016-09-18T09:18:18.626Z,290
2016-09-18T09:19:18.580Z,300
2016-09-18T09:20:18.585Z,320
2016-09-18T09:21:18.534Z,345
2016-09-18T09:22:18.557Z,295
2016-09-18T09:23:18.542Z,320
2016-09-18T09:24:18.534Z,345
2016-09-18T09:25:18.581Z,315
2016-09-18T09:26:18.580Z,295
2016-09-18T09:27:18.537Z,270
2016-09-18T09:28:18.576Z,270
2016-09-18T09:29:18.570Z,265
2016-09-18T09:30:18.624Z,265
2016-09-18T09:31:18.611Z,300
2016-09-18T09:32:18.573Z,325
2016-09-18T09:33:18.579Z,325
2016-09-18T09:34:18.586Z,350
2016-09-18T09:35:18.608Z,330
2016-09-18T09:36:18.616Z,290
2016-09-18T09:37:18.605Z,260
2016-09-18T09:38:18.575Z,285
2016-09-18T09:39:18.612Z,300
2016-09-18T09:40:18.609Z,240
2016-09-18T09:41:18.618Z,250
2016-09-18T09:42:18.597Z,285
2016-09-18T09:43:18.656Z,250
2016-09-18T09:44:18.652Z,240
2016-09-18T09:45:18.640Z,240
2016-09-18T09:46:18.633Z,240
2016-09-18T09:47:18.651Z,230
2016-09-18T09:48:18.603Z,220
2016-09-18T09:49:18.584Z,225
2016-09-18T09:50:18.589Z,250
2016-09-18T09:51:18.623Z,225
2016-09-18T09:52:18.599Z,205
2016-09-18T09:53:18.614Z,245
2016-09-18T09:54:18.589Z,255
2016-09-18T09:55:18.561Z,305
2016-09-18T09:56:18.612Z,305
2016-09-18T09:57:18.554Z,285
2016-09-18T09:58:18.598Z,235
2016-09-18T09:59:18.624Z,245
2016-09-18T10:00:18.602Z,235
2016-09-18T10:01:18.603Z,245
2016-09-18T10:02:18.608Z,275
2016-09-18T10:03:18.875Z,270
2016-09-18T10:04:18.663Z,230
2016-09-18T10:05:18.623Z,245
2016-09-18T10:06:18.593Z,215
2016-09-18T10:07:18.579Z,215
2016-09-18T10:08:18.603Z,235
2016-09-18T10:09:18.647Z,270
2016-09-18T10:10:18.647Z,265
2016-09-18T10:11:18.625Z,240
2016-09-18T10:12:18.640Z,225
2016-09-18T10:13:18.864Z,230
2016-09-18T10:14:18.672Z,215
2016-09-18T10:15:18.593Z,210
2016-09-18T10:16:18.611Z,245
2016-09-18T10:17:18.646Z,270
2016-09-18T10:18:18.595Z,295
2016-09-18T10:19:18.619Z,315
2016-09-18T10:20:18.656Z,310
2016-09-18T10:21:18.691Z,280
2016-09-18T10:22:18.655Z,255
2016-09-18T10:23:18.689Z,230
2016-09-18T10:24:18.637Z,220
2016-09-18T10:25:18.774Z,190
2016-09-18T10:26:18.675Z,195
2016-09-18T10:27:18.806Z,225
2016-09-18T10:28:18.648Z,255
2016-09-18T10:29:18.653Z,300
2016-09-18T10:30:18.679Z,340
2016-09-18T10:31:18.671Z,350
2016-09-18T10:32:18.685Z,350
2016-09-18T10:33:18.634Z,340
2016-09-18T10:34:18.627Z,350
2016-09-18T10:35:19.362Z,345
2016-09-18T10:36:18.663Z,340
2016-09-18T10:37:18.711Z,330
2016-09-18T10:38:18.663Z,355
2016-09-18T10:39:18.647Z,375
2016-09-18T10:40:18.638Z,355
2016-09-18T10:41:18.719Z,340
2016-09-18T10:42:18.631Z,330
2016-09-18T10:43:18.635Z,305
2016-09-18T10:44:18.639Z,270
2016-09-18T10:45:18.666Z,230
2016-09-18T10:46:18.662Z,195
2016-09-18T10:47:18.686Z,185
2016-09-18T10:48:18.647Z,180
2016-09-18T10:49:18.652Z,185
2016-09-18T10:50:18.655Z,200
2016-09-18T10:51:18.639Z,205
2016-09-18T10:52:18.695Z,200
2016-09-18T10:53:18.625Z,210
2016-09-18T10:54:18.642Z,225
2016-09-18T10:55:18.665Z,220
2016-09-18T10:56:18.662Z,225
2016-09-18T10:57:18.729Z,245
2016-09-18T10:58:18.655Z,200
2016-09-18T10:59:18.700Z,200
2016-09-18T11:00:18.653Z,195
2016-09-18T11:01:18.630Z,220
2016-09-18T11:02:18.664Z,220
2016-09-18T11:03:18.672Z,190
2016-09-18T11:04:18.655Z,185
2016-09-18T11:05:18.688Z,195
2016-09-18T11:06:18.698Z,210
2016-09-18T11:07:18.699Z,240
2016-09-18T11:08:18.721Z,225
2016-09-18T11:09:18.703Z,240
2016-09-18T11:10:18.725Z,230
2016-09-18T11:11:18.762Z,210
2016-09-18T11:12:18.680Z,180
2016-09-18T11:13:18.702Z,170
2016-09-18T11:14:18.755Z,190
2016-09-18T11:15:18.734Z,230
2016-09-18T11:16:18.739Z,240
2016-09-18T11:17:18.693Z,220
2016-09-18T11:18:18.651Z,205
2016-09-18T11:19:18.685Z,185
2016-09-18T11:20:18.650Z,175
2016-09-18T11:21:18.686Z,185
2016-09-18T11:22:18.668Z,205
2016-09-18T11:23:18.704Z,230
2016-09-18T11:24:18.709Z,255
2016-09-18T11:25:18.702Z,285
2016-09-18T11:26:18.673Z,285
2016-09-18T11:27:18.671Z,265
2016-09-18T11:28:18.725Z,240
2016-09-18T11:29:18.710Z,235
2016-09-18T11:30:18.678Z,225
2016-09-18T11:31:18.692Z,190
2016-09-18T11:32:18.694Z,180
2016-09-18T11:33:18.775Z,175
2016-09-18T11:34:18.667Z,165
2016-09-18T11:35:18.703Z,170
2016-09-18T11:36:18.651Z,180
2016-09-18T11:37:18.655Z,190
2016-09-18T11:38:18.726Z,195
2016-09-18T11:39:18.700Z,195
2016-09-18T11:40:18.693Z,205
2016-09-18T11:41:18.698Z,230
2016-09-18T11:42:18.718Z,275
2016-09-18T11:43:18.814Z,315
2016-09-18T11:44:18.689Z,345
2016-09-18T11:45:18.712Z,360
2016-09-18T11:46:18.702Z,350
2016-09-18T11:47:18.693Z,325
2016-09-18T11:48:18.713Z,300
2016-09-18T11:49:18.702Z,240
2016-09-18T11:50:18.688Z,225
2016-09-18T11:51:18.731Z,210
2016-09-18T11:52:18.731Z,190
2016-09-18T11:53:18.745Z,175
2016-09-18T11:54:18.757Z,165
2016-09-18T11:55:18.786Z,145
2016-09-18T11:56:19.283Z,150
2016-09-18T11:57:18.715Z,155
2016-09-18T11:58:18.719Z,155
2016-09-18T11:59:18.741Z,155
2016-09-18T12:00:18.722Z,170
2016-09-18T12:01:18.702Z,190
2016-09-18T12:02:18.739Z,215
2016-09-18T12:03:18.759Z,245
2016-09-18T12:04:18.767Z,245
2016-09-18T12:05:18.744Z,260
2016-09-18T12:06:18.760Z,245
2016-09-18T12:07:18.715Z,235
2016-09-18T12:08:18.758Z,235
2016-09-18T12:09:18.746Z,245
2016-09-18T12:10:18.699Z,285
2016-09-18T12:11:18.742Z,260
2016-09-18T12:12:18.712Z,225
2016-09-18T12:13:18.884Z,215
2016-09-18T12:14:18.754Z,215
2016-09-18T12:15:18.773Z,220
2016-09-18T12:16:18.743Z,210
2016-09-18T12:17:18.818Z,205
2016-09-18T12:18:18.786Z,205
2016-09-18T12:19:18.738Z,200
2016-09-18T12:20:18.757Z,195
2016-09-18T12:21:18.762Z,190
2016-09-18T12:22:18.708Z,185
2016-09-18T12:23:18.718Z,190
2016-09-18T12:24:18.792Z,205
2016-09-18T12:25:18.752Z,225
2016-09-18T12:26:18.732Z,235
2016-09-18T12:27:18.805Z,240
2016-09-18T12:28:18.759Z,255
2016-09-18T12:29:18.765Z,285
2016-09-18T12:30:18.760Z,265
2016-09-18T12:31:18.738Z,265
2016-09-18T12:32:18.799Z,260
2016-09-18T12:33:18.741Z,275
2016-09-18T12:34:18.770Z,250
2016-09-18T12:35:18.792Z,225
2016-09-18T12:36:18.813Z,210
2016-09-18T12:37:18.833Z,210
2016-09-18T12:38:18.795Z,215
2016-09-18T12:39:18.856Z,230
2016-09-18T12:40:18.804Z,230
2016-09-18T12:41:18.786Z,210
2016-09-18T12:42:18.787Z,180
2016-09-18T12:43:18.765Z,155
2016-09-18T12:44:18.764Z,140
2016-09-18T12:45:18.756Z,140
2016-09-18T12:46:18.770Z,145
2016-09-18T12:47:18.766Z,155
2016-09-18T12:48:18.775Z,155
2016-09-18T12:49:18.903Z,170
2016-09-18T12:50:18.812Z,180
2016-09-18T12:51:18.783Z,195
2016-09-18T12:52:18.743Z,220
2016-09-18T12:53:19.172Z,220
2016-09-18T12:54:18.752Z,205
2016-09-18T12:55:18.824Z,200
2016-09-18T12:56:18.810Z,205
2016-09-18T12:57:18.804Z,200
2016-09-18T12:58:18.750Z,205
2016-09-18T12:59:18.759Z,200
2016-09-18T13:00:18.778Z,195
2016-09-18T13:01:18.967Z,195
2016-09-18T13:02:18.800Z,195
2016-09-18T13:03:18.815Z,185
2016-09-18T13:04:18.749Z,180
2016-09-18T13:05:18.829Z,165
2016-09-18T13:06:18.779Z,155
2016-09-18T13:07:18.807Z,160
2016-09-18T13:08:18.810Z,160
2016-09-18T13:09:18.837Z,165
2016-09-18T13:10:18.844Z,175
2016-09-18T13:11:18.799Z,195
2016-09-18T13:12:18.838Z,245
2016-09-18T13:13:18.773Z,275
2016-09-18T13:14:18.823Z,280
2016-09-18T13:15:18.793Z,255
2016-09-18T13:16:18.794Z,225
2016-09-18T13:17:18.997Z,200
2016-09-18T13:18:18.807Z,175
2016-09-18T13:19:18.848Z,165
2016-09-18T13:20:19.353Z,165
2016-09-18T13:21:18.784Z,170
2016-09-18T13:22:18.819Z,175
2016-09-18T13:23:18.861Z,180
2016-09-18T13:24:18.858Z,175
2016-09-18T13:25:18.852Z,170
2016-09-18T13:26:18.837Z,150
2016-09-18T13:27:18.777Z,120
2016-09-18T13:28:18.791Z,115
2016-09-18T13:29:18.805Z,120
2016-09-18T13:30:18.795Z,120
2016-09-18T13:31:18.802Z,120
2016-09-18T13:32:18.765Z,125
2016-09-18T13:33:18.831Z,130
2016-09-18T13:34:18.793Z,135
2016-09-18T13:35:18.858Z,150
2016-09-18T13:36:18.835Z,165
2016-09-18T13:37:18.841Z,180
2016-09-18T13:38:18.939Z,210
2016-09-18T13:39:18.886Z,240
2016-09-18T13:40:19.119Z,270
2016-09-18T13:41:19.154Z,270
2016-09-18T13:42:18.828Z,230
2016-09-18T13:43:18.819Z,230
2016-09-18T13:44:18.833Z,220
2016-09-18T13:45:18.838Z,220
2016-09-18T13:46:18.826Z,225
2016-09-18T13:47:18.834Z,230
2016-09-18T13:48:18.815Z,225
2016-09-18T13:49:18.821Z,215
2016-09-18T13:50:18.870Z,200
2016-09-18T13:51:18.883Z,185
2016-09-18T13:52:18.863Z,170
2016-09-18T13:53:19.050Z,160
2016-09-18T13:54:18.905Z,165
2016-09-18T13:55:18.866Z,175
2016-09-18T13:56:18.889Z,200
2016-09-18T13:57:18.840Z,240
2016-09-18T13:58:18.890Z,245
2016-09-18T13:59:18.875Z,245
2016-09-18T14:00:18.860Z,245
2016-09-18T14:01:18.906Z,245
2016-09-18T14:02:18.905Z,240
2016-09-18T14:03:18.892Z,230
2016-09-18T14:04:19.108Z,215
2016-09-18T14:05:18.869Z,185
2016-09-18T14:06:18.888Z,155
2016-09-18T14:07:18.865Z,150
2016-09-18T14:08:19.008Z,145
2016-09-18T14:09:19.262Z,160
2016-09-18T14:10:18.864Z,160
2016-09-18T14:11:18.844Z,170
2016-09-18T14:12:18.863Z,180
2016-09-18T14:13:19.467Z,185
2016-09-18T14:14:18.879Z,180